Time,TemperatureF,DewpointF,PressureIn,WindDirection,WindDirectionDegrees,WindSpeedMPH,WindSpeedGustMPH,Humidity,HourlyPrecipIn,Conditions,Clouds,dailyrainin,SoftwareType,DateUTC
2013-11-05 00:00:00,54.6,36.8,29.73,SE,129,13.0,16.0,51,0.00,,,0.00,VWS V14.00,2013-11-05 07:00:00,
2013-11-05 00:02:00,50.8,37.4,29.70,NE,53,3.0,6.0,60,0.00,,,0.00,VWS V14.00,2013-11-05 07:02:00,
2013-11-05 00:07:00,50.5,37.6,29.71,NE,48,4.0,5.0,61,0.00,,,0.00,VWS V14.00,2013-11-05 07:07:00,
2013-11-05 00:10:00,53.7,37.9,29.73,SE,126,5.0,11.0,55,0.00,,,0.00,VWS V14.00,2013-11-05 07:10:00,
2013-11-05 00:12:00,50.3,37.4,29.71,ENE,57,2.0,4.0,61,0.00,,,0.00,VWS V14.00,2013-11-05 07:12:00,
2013-11-05 00:17:00,50.0,37.1,29.71,ENE,58,0.0,2.0,61,0.00,,,0.00,VWS V14.00,2013-11-05 07:17:00,
2013-11-05 00:20:00,52.8,38.0,29.72,ESE,109,4.0,10.0,57,0.00,,,0.00,VWS V14.00,2013-11-05 07:20:00,
2013-11-05 00:22:00,49.7,36.8,29.71,NNE,13,2.0,4.0,61,0.00,,,0.00,VWS V14.00,2013-11-05 07:22:00,
2013-11-05 00:27:00,49.6,36.7,29.71,North,355,7.0,7.0,61,0.00,,,0.00,VWS V14.00,2013-11-05 07:27:00,
2013-11-05 00:30:00,52.2,37.9,29.70,East,90,7.0,10.0,58,0.00,,,0.00,VWS V14.00,2013-11-05 07:30:00,
2013-11-05 00:32:00,49.3,36.4,29.71,North,9,2.0,7.0,61,0.00,,,0.00,VWS V14.00,2013-11-05 07:32:00,
2013-11-05 00:37:00,49.1,35.8,29.72,NW,318,4.0,5.0,60,0.00,,,0.00,VWS V14.00,2013-11-05 07:37:00,
2013-11-05 00:40:00,51.9,38.0,29.70,East,99,5.0,7.0,59,0.00,,,0.00,VWS V14.00,2013-11-05 07:40:00,
2013-11-05 00:42:00,48.8,36.0,29.72,NNW,341,1.0,4.0,61,0.00,,,0.00,VWS V14.00,2013-11-05 07:42:00,
2013-11-05 00:47:00,48.5,36.1,29.72,NNW,341,0.0,2.0,62,0.00,,,0.00,VWS V14.00,2013-11-05 07:47:00,
2013-11-05 00:50:00,51.5,38.1,29.70,East,82,4.0,9.0,60,0.00,,,0.00,VWS V14.00,2013-11-05 07:50:00,
2013-11-05 00:52:00,48.2,35.8,29.72,NNW,342,1.0,3.0,62,0.00,,,0.00,VWS V14.00,2013-11-05 07:52:00,
2013-11-05 00:57:00,48.1,36.1,29.72,North,350,0.0,3.0,63,0.00,,,0.00,VWS V14.00,2013-11-05 07:57:00,
2013-11-05 01:00:00,50.9,37.5,29.70,ENE,62,3.0,6.0,60,0.00,,,0.00,VWS V14.00,2013-11-05 08:00:00,
2013-11-05 01:02:00,47.6,34.8,29.72,North,350,1.0,1.0,61,0.00,,,0.00,VWS V14.00,2013-11-05 08:02:00,
2013-11-05 01:07:00,46.8,34.1,29.72,North,350,0.0,2.0,61,0.00,,,0.00,VWS V14.00,2013-11-05 08:07:00,
2013-11-05 01:10:00,50.4,37.0,29.71,ENE,57,2.0,4.0,60,0.00,,,0.00,VWS V14.00,2013-11-05 08:10:00,
2013-11-05 01:12:00,45.6,33.8,29.73,NNE,15,0.0,2.0,63,0.00,,,0.00,VWS V14.00,2013-11-05 08:12:00,
2013-11-05 01:17:00,45.2,33.8,29.74,NNE,15,0.0,1.0,64,0.00,,,0.00,VWS V14.00,2013-11-05 08:17:00,
2013-11-05 01:20:00,49.9,37.0,29.72,North,5,3.0,3.0,61,0.00,,,0.00,VWS V14.00,2013-11-05 08:20:00,
2013-11-05 01:22:00,44.8,33.8,29.74,NNE,15,0.0,1.0,65,0.00,,,0.00,VWS V14.00,2013-11-05 08:22:00,
2013-11-05 01:27:00,44.5,33.9,29.75,NNE,15,0.0,1.0,66,0.00,,,0.00,VWS V14.00,2013-11-05 08:27:00,
2013-11-05 01:30:00,49.5,36.6,29.72,NNE,13,5.0,7.0,61,0.00,,,0.00,VWS V14.00,2013-11-05 08:30:00,
2013-11-05 01:32:00,44.4,34.1,29.75,NNE,15,2.0,2.0,67,0.00,,,0.00,VWS V14.00,2013-11-05 08:32:00,
2013-11-05 01:37:00,44.4,34.1,29.74,North,355,0.0,1.0,67,0.00,,,0.00,VWS V14.00,2013-11-05 08:37:00,
2013-11-05 01:40:00,48.9,36.1,29.71,NNW,331,0.0,6.0,61,0.00,,,0.00,VWS V14.00,2013-11-05 08:40:00,
2013-11-05 01:42:00,44.5,34.6,29.74,NNW,343,0.0,2.0,68,0.00,,,0.00,VWS V14.00,2013-11-05 08:42:00,
2013-11-05 01:47:00,44.6,34.3,29.75,NNW,343,0.0,1.0,67,0.00,,,0.00,VWS V14.00,2013-11-05 08:47:00,
2013-11-05 01:50:00,48.3,35.9,29.72,North,350,0.0,3.0,62,0.00,,,0.00,VWS V14.00,2013-11-05 08:50:00,
2013-11-05 01:52:00,44.7,34.0,29.75,NNW,342,0.0,0.0,66,0.00,,,0.00,VWS V14.00,2013-11-05 08:52:00,
2013-11-05 01:57:00,44.7,33.7,29.75,NNW,342,0.0,1.0,65,0.00,,,0.00,VWS V14.00,2013-11-05 08:57:00,
2013-11-05 02:00:00,47.9,35.5,29.72,North,349,0.0,1.0,62,0.00,,,0.00,VWS V14.00,2013-11-05 09:00:00,
2013-11-05 02:02:00,44.8,32.2,29.74,North,355,1.0,4.0,61,0.00,,,0.00,VWS V14.00,2013-11-05 09:02:00,
2013-11-05 02:07:00,45.0,30.3,29.74,NW,316,3.0,5.0,56,0.00,,,0.00,VWS V14.00,2013-11-05 09:07:00,
2013-11-05 02:10:00,46.0,33.7,29.73,NNE,15,2.0,2.0,62,0.00,,,0.00,VWS V14.00,2013-11-05 09:10:00,
2013-11-05 02:12:00,45.4,29.7,29.75,NNW,335,1.0,2.0,54,0.00,,,0.00,VWS V14.00,2013-11-05 09:12:00,
2013-11-05 02:17:00,45.6,29.0,29.75,NNW,329,1.0,3.0,52,0.00,,,0.00,VWS V14.00,2013-11-05 09:17:00,
2013-11-05 02:20:00,45.0,34.0,29.74,NNE,15,0.0,1.0,65,0.00,,,0.00,VWS V14.00,2013-11-05 09:20:00,
2013-11-05 02:22:00,45.9,28.8,29.75,NNW,333,0.0,2.0,51,0.00,,,0.00,VWS V14.00,2013-11-05 09:22:00,
2013-11-05 02:27:00,45.8,28.2,29.75,North,5,0.0,0.0,50,0.00,,,0.00,VWS V14.00,2013-11-05 09:27:00,
2013-11-05 02:30:00,44.5,34.2,29.75,NNE,15,1.0,1.0,67,0.00,,,0.00,VWS V14.00,2013-11-05 09:30:00,
2013-11-05 02:32:00,45.8,28.2,29.75,NNW,331,2.0,2.0,50,0.00,,,0.00,VWS V14.00,2013-11-05 09:32:00,
2013-11-05 02:37:00,45.7,28.1,29.75,NW,315,1.0,3.0,50,0.00,,,0.00,VWS V14.00,2013-11-05 09:37:00,
2013-11-05 02:40:00,44.4,34.5,29.74,NNW,346,0.0,2.0,68,0.00,,,0.00,VWS V14.00,2013-11-05 09:40:00,
2013-11-05 02:42:00,45.8,27.7,29.76,NW,323,0.0,2.0,49,0.00,,,0.00,VWS V14.00,2013-11-05 09:42:00,
2013-11-05 02:47:00,45.8,27.7,29.76,NW,322,0.0,3.0,49,0.00,,,0.00,VWS V14.00,2013-11-05 09:47:00,
2013-11-05 02:50:00,44.7,34.4,29.75,NNW,343,0.0,0.0,67,0.00,,,0.00,VWS V14.00,2013-11-05 09:50:00,
2013-11-05 02:52:00,46.0,27.9,29.76,NW,313,0.0,4.0,49,0.00,,,0.00,VWS V14.00,2013-11-05 09:52:00,
2013-11-05 02:57:00,46.1,28.0,29.77,NNW,329,0.0,1.0,49,0.00,,,0.00,VWS V14.00,2013-11-05 09:57:00,
2013-11-05 03:00:00,44.7,32.9,29.74,North,350,1.0,3.0,63,0.00,,,0.00,VWS V14.00,2013-11-05 10:00:00,
2013-11-05 03:01:00,46.3,28.2,29.77,NE,41,1.0,3.0,49,0.00,,,0.00,VWS V14.00,2013-11-05 10:01:00,
2013-11-05 03:06:00,46.5,27.9,29.77,NNE,26,0.0,1.0,48,0.00,,,0.00,VWS V14.00,2013-11-05 10:06:00,
2013-11-05 03:10:00,45.2,29.6,29.75,NNW,336,0.0,3.0,54,0.00,,,0.00,VWS V14.00,2013-11-05 10:10:00,
2013-11-05 03:11:00,46.5,27.9,29.77,NNE,27,0.0,1.0,48,0.00,,,0.00,VWS V14.00,2013-11-05 10:11:00,
2013-11-05 03:16:00,46.5,27.9,29.77,NNE,27,0.0,0.0,48,0.00,,,0.00,VWS V14.00,2013-11-05 10:16:00,
2013-11-05 03:20:00,45.9,28.8,29.75,NNW,331,1.0,2.0,51,0.00,,,0.00,VWS V14.00,2013-11-05 10:20:00,
2013-11-05 03:21:00,46.4,28.3,29.78,NE,44,0.0,5.0,49,0.00,,,0.00,VWS V14.00,2013-11-05 10:21:00,
2013-11-05 03:26:00,46.4,29.3,29.78,NE,55,0.0,1.0,51,0.00,,,0.00,VWS V14.00,2013-11-05 10:26:00,
2013-11-05 03:30:00,45.8,28.2,29.75,North,5,0.0,1.0,50,0.00,,,0.00,VWS V14.00,2013-11-05 10:30:00,
2013-11-05 03:31:00,46.3,30.1,29.78,ENE,73,1.0,2.0,53,0.00,,,0.00,VWS V14.00,2013-11-05 10:31:00,
2013-11-05 03:36:00,46.0,30.3,29.78,NE,46,4.0,4.0,54,0.00,,,0.00,VWS V14.00,2013-11-05 10:36:00,
2013-11-05 03:40:00,45.8,27.7,29.76,NW,323,0.0,3.0,49,0.00,,,0.00,VWS V14.00,2013-11-05 10:40:00,
2013-11-05 03:41:00,45.8,30.6,29.78,NE,44,2.0,5.0,55,0.00,,,0.00,VWS V14.00,2013-11-05 10:41:00,
2013-11-05 03:46:00,45.7,30.5,29.78,NNE,32,0.0,2.0,55,0.00,,,0.00,VWS V14.00,2013-11-05 10:46:00,
2013-11-05 03:50:00,46.0,27.9,29.76,North,350,1.0,5.0,49,0.00,,,0.00,VWS V14.00,2013-11-05 10:50:00,
2013-11-05 03:51:00,45.7,30.0,29.78,NNE,32,0.0,2.0,54,0.00,,,0.00,VWS V14.00,2013-11-05 10:51:00,
2013-11-05 03:56:00,45.6,29.9,29.79,NNE,32,0.0,3.0,54,0.00,,,0.00,VWS V14.00,2013-11-05 10:56:00,
2013-11-05 04:00:00,46.3,28.2,29.77,NNE,26,0.0,3.0,49,0.00,,,0.00,VWS V14.00,2013-11-05 11:00:00,
2013-11-05 04:02:00,45.5,29.8,29.79,NNE,32,0.0,0.0,54,0.00,,,0.00,VWS V14.00,2013-11-05 11:02:00,
2013-11-05 04:06:00,45.5,29.4,29.79,NNE,32,0.0,0.0,53,0.00,,,0.00,VWS V14.00,2013-11-05 11:06:00,
2013-11-05 04:10:00,46.5,27.9,29.78,NNE,26,0.0,0.0,48,0.00,,,0.00,VWS V14.00,2013-11-05 11:10:00,
2013-11-05 04:11:00,45.4,29.3,29.80,NNE,32,0.0,1.0,53,0.00,,,0.00,VWS V14.00,2013-11-05 11:11:00,
2013-11-05 04:16:00,45.4,28.8,29.80,NNW,329,2.0,4.0,52,0.00,,,0.00,VWS V14.00,2013-11-05 11:16:00,
2013-11-05 04:20:00,46.4,28.3,29.78,NNE,24,5.0,5.0,49,0.00,,,0.00,VWS V14.00,2013-11-05 11:20:00,
2013-11-05 04:21:00,45.5,28.4,29.81,NNW,342,0.0,3.0,51,0.00,,,0.00,VWS V14.00,2013-11-05 11:21:00,
2013-11-05 04:26:00,45.6,28.5,29.82,NW,325,0.0,4.0,51,0.00,,,0.00,VWS V14.00,2013-11-05 11:26:00,
2013-11-05 04:30:00,46.4,29.8,29.78,NE,55,1.0,1.0,52,0.00,,,0.00,VWS V14.00,2013-11-05 11:30:00,
2013-11-05 04:31:00,45.8,28.7,29.82,NNW,339,1.0,4.0,51,0.00,,,0.00,VWS V14.00,2013-11-05 11:31:00,
2013-11-05 04:36:00,45.9,28.8,29.81,NNW,347,0.0,4.0,51,0.00,,,0.00,VWS V14.00,2013-11-05 11:36:00,
2013-11-05 04:40:00,45.9,30.7,29.78,NE,44,2.0,5.0,55,0.00,,,0.00,VWS V14.00,2013-11-05 11:40:00,
2013-11-05 04:41:00,45.9,28.8,29.82,NNW,333,0.0,2.0,51,0.00,,,0.00,VWS V14.00,2013-11-05 11:41:00,
2013-11-05 04:46:00,46.0,28.9,29.82,NNW,330,0.0,0.0,51,0.00,,,0.00,VWS V14.00,2013-11-05 11:46:00,
2013-11-05 04:50:00,45.7,30.0,29.78,NNE,32,0.0,2.0,54,0.00,,,0.00,VWS V14.00,2013-11-05 11:50:00,
2013-11-05 04:51:00,45.9,29.3,29.83,NNW,336,1.0,2.0,52,0.00,,,0.00,VWS V14.00,2013-11-05 11:51:00,
2013-11-05 04:56:00,45.9,29.3,29.83,NW,325,1.0,5.0,52,0.00,,,0.00,VWS V14.00,2013-11-05 11:56:00,
2013-11-05 05:00:00,45.6,29.9,29.79,NNE,32,0.0,1.0,54,0.00,,,0.00,VWS V14.00,2013-11-05 12:00:00,
2013-11-05 05:01:00,45.9,29.8,29.83,North,360,0.0,11.0,53,0.00,,,0.00,VWS V14.00,2013-11-05 12:01:00,
2013-11-05 05:06:00,46.0,29.8,29.83,North,10,3.0,10.0,53,0.00,,,0.00,VWS V14.00,2013-11-05 12:06:00,
2013-11-05 05:10:00,45.4,29.3,29.80,NNE,32,0.0,1.0,53,0.00,,,0.00,VWS V14.00,2013-11-05 12:10:00,
2013-11-05 05:11:00,46.2,30.0,29.83,NW,318,3.0,10.0,53,0.00,,,0.00,VWS V14.00,2013-11-05 12:11:00,
2013-11-05 05:16:00,46.2,30.0,29.83,NNW,334,9.0,10.0,53,0.00,,,0.00,VWS V14.00,2013-11-05 12:16:00,
2013-11-05 05:20:00,45.5,28.4,29.80,NNW,346,1.0,4.0,51,0.00,,,0.00,VWS V14.00,2013-11-05 12:20:00,
2013-11-05 05:21:00,46.1,29.9,29.83,NNW,348,4.0,7.0,53,0.00,,,0.00,VWS V14.00,2013-11-05 12:21:00,
2013-11-05 05:26:00,46.1,29.9,29.83,NNW,332,3.0,7.0,53,0.00,,,0.00,VWS V14.00,2013-11-05 12:26:00,
2013-11-05 05:30:00,45.7,28.6,29.82,NW,325,0.0,4.0,51,0.00,,,0.00,VWS V14.00,2013-11-05 12:30:00,
2013-11-05 05:31:00,46.0,29.8,29.83,NW,317,4.0,7.0,53,0.00,,,0.00,VWS V14.00,2013-11-05 12:31:00,
2013-11-05 05:36:00,45.8,29.7,29.84,NNW,340,2.0,7.0,53,0.00,,,0.00,VWS V14.00,2013-11-05 12:36:00,
2013-11-05 05:40:00,45.9,28.8,29.82,NNW,333,0.0,3.0,51,0.00,,,0.00,VWS V14.00,2013-11-05 12:40:00,
2013-11-05 05:41:00,45.7,30.0,29.84,NNW,331,3.0,7.0,54,0.00,,,0.00,VWS V14.00,2013-11-05 12:41:00,
2013-11-05 05:46:00,45.5,29.8,29.84,North,349,0.0,3.0,54,0.00,,,0.00,VWS V14.00,2013-11-05 12:46:00,
2013-11-05 05:50:00,45.9,29.3,29.82,NNW,336,0.0,2.0,52,0.00,,,0.00,VWS V14.00,2013-11-05 12:50:00,
2013-11-05 05:51:00,45.4,29.7,29.84,North,349,0.0,1.0,54,0.00,,,0.00,VWS V14.00,2013-11-05 12:51:00,
2013-11-05 05:56:00,45.2,29.6,29.84,North,349,0.0,0.0,54,0.00,,,0.00,VWS V14.00,2013-11-05 12:56:00,
2013-11-05 06:00:00,45.9,29.8,29.83,NNW,331,3.0,11.0,53,0.00,,,0.00,VWS V14.00,2013-11-05 13:00:00,
2013-11-05 06:01:00,45.0,29.4,29.84,North,349,0.0,0.0,54,0.00,,,0.00,VWS V14.00,2013-11-05 13:01:00,
2013-11-05 06:06:00,44.7,29.5,29.84,North,349,0.0,0.0,55,0.00,,,0.00,VWS V14.00,2013-11-05 13:06:00,
2013-11-05 06:10:00,46.1,29.9,29.83,NW,322,6.0,10.0,53,0.00,,,0.00,VWS V14.00,2013-11-05 13:10:00,
2013-11-05 06:11:00,44.3,29.6,29.85,North,349,0.0,0.0,56,0.00,,,0.00,VWS V14.00,2013-11-05 13:11:00,
2013-11-05 06:16:00,43.9,29.2,29.85,WSW,246,0.0,3.0,56,0.00,,,0.00,VWS V14.00,2013-11-05 13:16:00,
2013-11-05 06:20:00,46.2,30.0,29.83,NNW,329,3.0,9.0,53,0.00,,,0.00,VWS V14.00,2013-11-05 13:20:00,
2013-11-05 06:21:00,43.6,29.4,29.85,WSW,246,0.0,0.0,57,0.00,,,0.00,VWS V14.00,2013-11-05 13:21:00,
2013-11-05 06:26:00,43.4,29.6,29.85,WSW,245,0.0,1.0,58,0.00,,,0.00,VWS V14.00,2013-11-05 13:26:00,
2013-11-05 06:30:00,46.0,29.8,29.83,North,355,3.0,7.0,53,0.00,,,0.00,VWS V14.00,2013-11-05 13:30:00,
2013-11-05 06:31:00,43.3,29.5,29.86,WSW,246,0.0,0.0,58,0.00,,,0.00,VWS V14.00,2013-11-05 13:31:00,
2013-11-05 06:36:00,43.2,29.4,29.86,WSW,246,0.0,1.0,58,0.00,,,0.00,VWS V14.00,2013-11-05 13:36:00,
2013-11-05 06:40:00,45.7,30.0,29.84,NNW,333,1.0,7.0,54,0.00,,,0.00,VWS V14.00,2013-11-05 13:40:00,
2013-11-05 06:41:00,43.2,29.4,29.86,NW,318,0.0,2.0,58,0.00,,,0.00,VWS V14.00,2013-11-05 13:41:00,
2013-11-05 06:46:00,43.1,29.3,29.86,West,260,0.0,3.0,58,0.00,,,0.00,VWS V14.00,2013-11-05 13:46:00,
2013-11-05 06:50:00,45.4,29.7,29.84,North,349,0.0,1.0,54,0.00,,,0.00,VWS V14.00,2013-11-05 13:50:00,
2013-11-05 06:51:00,43.1,29.3,29.86,West,261,0.0,0.0,58,0.00,,,0.00,VWS V14.00,2013-11-05 13:51:00,
2013-11-05 06:56:00,42.9,29.2,29.87,West,273,0.0,1.0,58,0.00,,,0.00,VWS V14.00,2013-11-05 13:56:00,
2013-11-05 07:00:00,45.0,29.4,29.84,North,349,0.0,0.0,54,0.00,,,0.00,VWS V14.00,2013-11-05 14:00:00,
2013-11-05 07:01:00,42.8,29.5,29.87,WNW,288,1.0,2.0,59,0.00,,,0.00,VWS V14.00,2013-11-05 14:01:00,
2013-11-05 07:06:00,42.7,29.8,29.87,WNW,288,1.0,2.0,60,0.00,,,0.00,VWS V14.00,2013-11-05 14:06:00,
2013-11-05 07:10:00,44.4,29.3,29.85,North,349,0.0,0.0,55,0.00,,,0.00,VWS V14.00,2013-11-05 14:10:00,
2013-11-05 07:11:00,42.6,29.7,29.88,WNW,288,0.0,2.0,60,0.00,,,0.00,VWS V14.00,2013-11-05 14:11:00,
2013-11-05 07:16:00,42.5,29.6,29.88,WNW,288,0.0,1.0,60,0.00,,,0.00,VWS V14.00,2013-11-05 14:16:00,
2013-11-05 07:20:00,43.7,29.5,29.86,WSW,245,0.0,0.0,57,0.00,,,0.00,VWS V14.00,2013-11-05 14:20:00,
2013-11-05 07:21:00,42.3,29.4,29.88,WNW,288,0.0,0.0,60,0.00,,,0.00,VWS V14.00,2013-11-05 14:21:00,
2013-11-05 07:26:00,42.2,29.3,29.89,WNW,288,0.0,0.0,60,0.00,,,0.00,VWS V14.00,2013-11-05 14:26:00,
2013-11-05 07:30:00,43.4,29.6,29.85,WSW,246,0.0,0.0,58,0.00,,,0.00,VWS V14.00,2013-11-05 14:30:00,
2013-11-05 07:31:00,42.4,29.9,29.89,WNW,288,0.0,1.0,61,0.00,,,0.00,VWS V14.00,2013-11-05 14:31:00,
2013-11-05 07:36:00,43.1,30.6,29.90,WNW,288,0.0,1.0,61,0.00,,,0.00,VWS V14.00,2013-11-05 14:36:00,
2013-11-05 07:40:00,43.2,29.4,29.86,NW,318,0.0,5.0,58,0.00,,,0.00,VWS V14.00,2013-11-05 14:40:00,
2013-11-05 07:41:00,43.8,30.8,29.90,WNW,288,0.0,0.0,60,0.00,,,0.00,VWS V14.00,2013-11-05 14:41:00,
2013-11-05 07:46:00,44.4,31.0,29.90,WNW,288,0.0,0.0,59,0.00,,,0.00,VWS V14.00,2013-11-05 14:46:00,
2013-11-05 07:50:00,43.1,29.3,29.86,West,260,0.0,0.0,58,0.00,,,0.00,VWS V14.00,2013-11-05 14:50:00,
2013-11-05 07:51:00,45.1,31.2,29.90,North,355,3.0,3.0,58,0.00,,,0.00,VWS V14.00,2013-11-05 14:51:00,
2013-11-05 07:56:00,46.0,31.2,29.91,North,360,4.0,5.0,56,0.00,,,0.00,VWS V14.00,2013-11-05 14:56:00,
2013-11-05 08:00:00,42.8,29.5,29.87,WNW,288,0.0,2.0,59,0.00,,,0.00,VWS V14.00,2013-11-05 15:00:00,
2013-11-05 08:01:00,46.6,31.3,29.91,North,349,2.0,7.0,55,0.00,,,0.00,VWS V14.00,2013-11-05 15:01:00,
2013-11-05 08:06:00,47.2,31.4,29.91,NNW,348,5.0,8.0,54,0.00,,,0.00,VWS V14.00,2013-11-05 15:06:00,
2013-11-05 08:10:00,42.6,29.7,29.88,WNW,288,0.0,2.0,60,0.00,,,0.00,VWS V14.00,2013-11-05 15:10:00,
2013-11-05 08:11:00,47.6,31.3,29.91,NNW,336,2.0,7.0,53,0.00,,,0.00,VWS V14.00,2013-11-05 15:11:00,
2013-11-05 08:16:00,47.9,31.1,29.92,NNW,345,5.0,9.0,52,0.00,,,0.00,VWS V14.00,2013-11-05 15:16:00,
2013-11-05 08:20:00,42.4,29.5,29.88,WNW,288,0.0,1.0,60,0.00,,,0.00,VWS V14.00,2013-11-05 15:20:00,
2013-11-05 08:21:00,48.2,31.4,29.92,NNW,337,2.0,7.0,52,0.00,,,0.00,VWS V14.00,2013-11-05 15:21:00,
2013-11-05 08:26:00,48.6,31.3,29.93,NNW,327,9.0,9.0,51,0.00,,,0.00,VWS V14.00,2013-11-05 15:26:00,
2013-11-05 08:30:00,42.3,29.8,29.89,WNW,288,0.0,1.0,61,0.00,,,0.00,VWS V14.00,2013-11-05 15:30:00,
2013-11-05 08:31:00,48.9,31.1,29.92,NNW,330,4.0,11.0,50,0.00,,,0.00,VWS V14.00,2013-11-05 15:31:00,
2013-11-05 08:36:00,49.4,31.1,29.92,NNW,337,3.0,9.0,49,0.00,,,0.00,VWS V14.00,2013-11-05 15:36:00,
2013-11-05 08:40:00,43.5,30.5,29.89,WNW,288,0.0,0.0,60,0.00,,,0.00,VWS V14.00,2013-11-05 15:40:00,
2013-11-05 08:41:00,49.8,31.4,29.92,North,355,3.0,6.0,49,0.00,,,0.00,VWS V14.00,2013-11-05 15:41:00,
2013-11-05 08:46:00,50.2,30.8,29.93,NW,321,4.0,10.0,47,0.00,,,0.00,VWS V14.00,2013-11-05 15:46:00,
2013-11-05 08:50:00,44.9,31.0,29.90,NNW,327,2.0,4.0,58,0.00,,,0.00,VWS V14.00,2013-11-05 15:50:00,
2013-11-05 08:51:00,50.5,31.0,29.93,NW,316,2.0,9.0,47,0.00,,,0.00,VWS V14.00,2013-11-05 15:51:00,
2013-11-05 08:56:00,50.8,30.8,29.93,NNW,337,7.0,10.0,46,0.00,,,0.00,VWS V14.00,2013-11-05 15:56:00,
2013-11-05 09:00:00,46.4,31.6,29.91,North,355,3.0,7.0,56,0.00,,,0.00,VWS V14.00,2013-11-05 16:00:00,
2013-11-05 09:01:00,51.2,30.6,29.93,North,355,5.0,9.0,45,0.00,,,0.00,VWS V14.00,2013-11-05 16:01:00,
2013-11-05 09:06:00,51.7,30.5,29.93,NW,322,2.0,6.0,44,0.00,,,0.00,VWS V14.00,2013-11-05 16:06:00,
2013-11-05 09:10:00,47.5,31.2,29.92,NNW,346,1.0,8.0,53,0.00,,,0.00,VWS V14.00,2013-11-05 16:10:00,
2013-11-05 09:11:00,52.1,30.3,29.93,NNW,331,4.0,9.0,43,0.00,,,0.00,VWS V14.00,2013-11-05 16:11:00,
2013-11-05 09:16:00,52.3,30.5,29.93,North,5,4.0,6.0,43,0.00,,,0.00,VWS V14.00,2013-11-05 16:16:00,
2013-11-05 09:20:00,48.1,31.3,29.92,NNE,24,5.0,10.0,52,0.00,,,0.00,VWS V14.00,2013-11-05 16:20:00,
2013-11-05 09:21:00,52.3,29.9,29.93,North,360,1.0,5.0,42,0.00,,,0.00,VWS V14.00,2013-11-05 16:21:00,
2013-11-05 09:26:00,52.5,30.1,29.93,North,355,5.0,5.0,42,0.00,,,0.00,VWS V14.00,2013-11-05 16:26:00,
2013-11-05 09:30:00,48.8,31.0,29.93,NNW,343,3.0,7.0,50,0.00,,,0.00,VWS V14.00,2013-11-05 16:30:00,
2013-11-05 09:31:00,53.2,30.1,29.93,NW,309,1.0,3.0,41,0.00,,,0.00,VWS V14.00,2013-11-05 16:31:00,
2013-11-05 09:36:00,53.5,30.4,29.93,NW,316,2.0,4.0,41,0.00,,,0.00,VWS V14.00,2013-11-05 16:36:00,
2013-11-05 09:40:00,49.6,31.2,29.92,NW,321,2.0,6.0,49,0.00,,,0.00,VWS V14.00,2013-11-05 16:40:00,
2013-11-05 09:41:00,53.4,29.7,29.93,West,281,0.0,3.0,40,0.00,,,0.00,VWS V14.00,2013-11-05 16:41:00,
2013-11-05 09:46:00,53.6,29.9,29.93,NW,318,3.0,5.0,40,0.00,,,0.00,VWS V14.00,2013-11-05 16:46:00,
2013-11-05 09:50:00,50.3,30.9,29.93,NNW,341,8.0,10.0,47,0.00,,,0.00,VWS V14.00,2013-11-05 16:50:00,
2013-11-05 09:51:00,53.7,30.0,29.93,WSW,255,0.0,6.0,40,0.00,,,0.00,VWS V14.00,2013-11-05 16:51:00,
2013-11-05 09:56:00,54.2,29.8,29.93,NW,323,3.0,5.0,39,0.00,,,0.00,VWS V14.00,2013-11-05 16:56:00,
2013-11-05 10:00:00,51.1,30.5,29.93,NNW,329,3.0,9.0,45,0.00,,,0.00,VWS V14.00,2013-11-05 17:00:00,
2013-11-05 10:01:00,54.6,30.2,29.93,NW,318,0.0,4.0,39,0.00,,,0.00,VWS V14.00,2013-11-05 17:01:00,
2013-11-05 10:06:00,55.0,29.9,29.93,NW,313,0.0,4.0,38,0.00,,,0.00,VWS V14.00,2013-11-05 17:06:00,
2013-11-05 10:10:00,52.0,30.2,29.93,North,355,5.0,9.0,43,0.00,,,0.00,VWS V14.00,2013-11-05 17:10:00,
2013-11-05 10:11:00,55.0,29.2,29.93,NW,317,0.0,6.0,37,0.00,,,0.00,VWS V14.00,2013-11-05 17:11:00,
2013-11-05 10:16:00,55.0,29.9,29.93,WSW,250,0.0,2.0,38,0.00,,,0.00,VWS V14.00,2013-11-05 17:16:00,
2013-11-05 10:20:00,52.3,29.9,29.93,North,9,4.0,5.0,42,0.00,,,0.00,VWS V14.00,2013-11-05 17:20:00,
2013-11-05 10:21:00,55.9,29.4,29.93,NNW,340,3.0,4.0,36,0.00,,,0.00,VWS V14.00,2013-11-05 17:21:00,
2013-11-05 10:26:00,55.6,28.4,29.93,WSW,244,0.0,5.0,35,0.00,,,0.00,VWS V14.00,2013-11-05 17:26:00,
2013-11-05 10:30:00,53.0,30.5,29.93,West,275,1.0,3.0,42,0.00,,,0.00,VWS V14.00,2013-11-05 17:30:00,
2013-11-05 10:31:00,55.8,29.9,29.93,SSW,195,0.0,4.0,37,0.00,,,0.00,VWS V14.00,2013-11-05 17:31:00,
2013-11-05 10:36:00,55.7,28.5,29.93,WSW,252,0.0,5.0,35,0.00,,,0.00,VWS V14.00,2013-11-05 17:36:00,
2013-11-05 10:40:00,53.3,29.6,29.93,West,280,2.0,3.0,40,0.00,,,0.00,VWS V14.00,2013-11-05 17:40:00,
2013-11-05 10:41:00,56.6,29.3,29.93,West,271,0.0,3.0,35,0.00,,,0.00,VWS V14.00,2013-11-05 17:41:00,
2013-11-05 10:46:00,56.9,29.5,29.93,NW,306,3.0,4.0,35,0.00,,,0.00,VWS V14.00,2013-11-05 17:46:00,
2013-11-05 10:50:00,53.8,30.1,29.93,West,261,3.0,6.0,40,0.00,,,0.00,VWS V14.00,2013-11-05 17:50:00,
2013-11-05 10:51:00,57.1,29.7,29.93,WNW,284,1.0,3.0,35,0.00,,,0.00,VWS V14.00,2013-11-05 17:51:00,
2013-11-05 10:56:00,57.3,31.3,29.93,WSW,253,5.0,5.0,37,0.00,,,0.00,VWS V14.00,2013-11-05 17:56:00,
2013-11-05 11:00:00,54.7,30.2,29.93,West,266,2.0,4.0,39,0.00,,,0.00,VWS V14.00,2013-11-05 18:00:00,
2013-11-05 11:01:00,57.3,29.2,29.93,SSE,154,0.0,3.0,34,0.00,,,0.00,VWS V14.00,2013-11-05 18:01:00,
2013-11-05 11:06:00,57.5,30.1,29.92,NW,304,0.0,3.0,35,0.00,,,0.00,VWS V14.00,2013-11-05 18:06:00,
2013-11-05 11:10:00,55.0,29.9,29.93,NW,317,0.0,6.0,38,0.00,,,0.00,VWS V14.00,2013-11-05 18:10:00,
2013-11-05 11:11:00,58.0,29.8,29.92,WSW,244,4.0,6.0,34,0.00,,,0.00,VWS V14.00,2013-11-05 18:11:00,
2013-11-05 11:16:00,58.3,29.3,29.92,SW,232,1.0,4.0,33,0.00,,,0.00,VWS V14.00,2013-11-05 18:16:00,
2013-11-05 11:20:00,55.7,30.5,29.93,North,360,3.0,4.0,38,0.00,,,0.00,VWS V14.00,2013-11-05 18:20:00,
2013-11-05 11:21:00,59.4,30.3,29.92,SW,225,0.0,5.0,33,0.00,,,0.00,VWS V14.00,2013-11-05 18:21:00,
2013-11-05 11:26:00,59.2,29.4,29.92,SSW,197,0.0,4.0,32,0.00,,,0.00,VWS V14.00,2013-11-05 18:26:00,
2013-11-05 11:30:00,55.7,29.9,29.93,SSW,195,2.0,4.0,37,0.00,,,0.00,VWS V14.00,2013-11-05 18:30:00,
2013-11-05 11:31:00,59.0,30.7,29.92,South,180,0.0,3.0,34,0.00,,,0.00,VWS V14.00,2013-11-05 18:31:00,
2013-11-05 11:36:00,59.6,29.7,29.92,NW,313,0.0,2.0,32,0.00,,,0.00,VWS V14.00,2013-11-05 18:36:00,
2013-11-05 11:40:00,56.3,29.7,29.93,West,271,1.0,3.0,36,0.00,,,0.00,VWS V14.00,2013-11-05 18:40:00,
2013-11-05 11:41:00,60.3,30.3,29.92,SSW,209,3.0,6.0,32,0.00,,,0.00,VWS V14.00,2013-11-05 18:41:00,
2013-11-05 11:46:00,60.3,31.1,29.92,South,182,1.0,4.0,33,0.00,,,0.00,VWS V14.00,2013-11-05 18:46:00,
2013-11-05 11:50:00,57.0,28.9,29.93,WNW,283,0.0,3.0,34,0.00,,,0.00,VWS V14.00,2013-11-05 18:50:00,
2013-11-05 11:51:00,61.1,30.3,29.91,WSW,237,3.0,8.0,31,0.00,,,0.00,VWS V14.00,2013-11-05 18:51:00,
2013-11-05 11:56:00,60.6,29.8,29.91,West,279,0.0,2.0,31,0.00,,,0.00,VWS V14.00,2013-11-05 18:56:00,
2013-11-05 12:00:00,57.4,30.0,29.93,SSW,212,0.0,4.0,35,0.00,,,0.00,VWS V14.00,2013-11-05 19:00:00,
2013-11-05 12:01:00,60.7,29.9,29.91,West,280,4.0,6.0,31,0.00,,,0.00,VWS V14.00,2013-11-05 19:01:00,
2013-11-05 12:06:00,60.6,29.8,29.91,WSW,250,3.0,6.0,31,0.00,,,0.00,VWS V14.00,2013-11-05 19:06:00,
2013-11-05 12:10:00,57.9,29.7,29.92,SW,233,1.0,6.0,34,0.00,,,0.00,VWS V14.00,2013-11-05 19:10:00,
2013-11-05 12:11:00,60.4,29.6,29.91,SW,214,3.0,4.0,31,0.00,,,0.00,VWS V14.00,2013-11-05 19:11:00,
2013-11-05 12:16:00,60.4,29.6,29.91,SE,136,0.0,3.0,31,0.00,,,0.00,VWS V14.00,2013-11-05 19:16:00,
2013-11-05 12:20:00,59.0,30.7,29.92,West,273,4.0,5.0,34,0.00,,,0.00,VWS V14.00,2013-11-05 19:20:00,
2013-11-05 12:21:00,60.5,30.5,29.90,SE,126,0.0,1.0,32,0.00,,,0.00,VWS V14.00,2013-11-05 19:21:00,
2013-11-05 12:26:00,61.3,30.4,29.90,SW,219,0.0,3.0,31,0.00,,,0.00,VWS V14.00,2013-11-05 19:26:00,
2013-11-05 12:30:00,59.0,31.4,29.92,SSW,206,0.0,5.0,35,0.00,,,0.00,VWS V14.00,2013-11-05 19:30:00,
2013-11-05 12:31:00,61.0,30.2,29.90,SSW,211,0.0,2.0,31,0.00,,,0.00,VWS V14.00,2013-11-05 19:31:00,
2013-11-05 12:36:00,61.8,30.1,29.90,West,268,4.0,5.0,30,0.00,,,0.00,VWS V14.00,2013-11-05 19:36:00,
2013-11-05 12:40:00,60.2,31.0,29.92,SSW,202,2.0,10.0,33,0.00,,,0.00,VWS V14.00,2013-11-05 19:40:00,
2013-11-05 12:41:00,62.0,30.2,29.90,WSW,253,3.0,5.0,30,0.00,,,0.00,VWS V14.00,2013-11-05 19:41:00,
2013-11-05 12:46:00,62.2,31.2,29.90,SW,225,0.0,3.0,31,0.00,,,0.00,VWS V14.00,2013-11-05 19:46:00,
2013-11-05 12:50:00,60.9,32.4,29.91,SW,222,8.0,8.0,34,0.00,,,0.00,VWS V14.00,2013-11-05 19:50:00,
2013-11-05 12:51:00,63.0,30.3,29.89,NW,325,0.0,4.0,29,0.00,,,0.00,VWS V14.00,2013-11-05 19:51:00,
2013-11-05 12:56:00,63.3,32.2,29.89,SSW,192,0.0,4.0,31,0.00,,,0.00,VWS V14.00,2013-11-05 19:56:00,
2013-11-05 13:00:00,60.5,29.7,29.91,WSW,240,0.0,4.0,31,0.00,,,0.00,VWS V14.00,2013-11-05 20:00:00,
2013-11-05 13:01:00,62.8,30.1,29.89,North,360,0.0,3.0,29,0.00,,,0.00,VWS V14.00,2013-11-05 20:01:00,
2013-11-05 13:06:00,62.3,29.7,29.89,NW,313,2.0,3.0,29,0.00,,,0.00,VWS V14.00,2013-11-05 20:06:00,
2013-11-05 13:10:00,60.4,29.6,29.91,NW,311,1.0,6.0,31,0.00,,,0.00,VWS V14.00,2013-11-05 20:10:00,
2013-11-05 13:11:00,62.2,30.4,29.88,West,263,0.0,6.0,30,0.00,,,0.00,VWS V14.00,2013-11-05 20:11:00,
2013-11-05 13:16:00,63.5,32.3,29.88,SSW,211,1.0,3.0,31,0.00,,,0.00,VWS V14.00,2013-11-05 20:16:00,
2013-11-05 13:20:00,60.3,31.1,29.90,SE,127,1.0,1.0,33,0.00,,,0.00,VWS V14.00,2013-11-05 20:20:00,
2013-11-05 13:21:00,63.8,30.1,29.88,WSW,248,5.0,7.0,28,0.00,,,0.00,VWS V14.00,2013-11-05 20:21:00,
2013-11-05 13:26:00,63.0,30.3,29.88,SW,218,0.0,5.0,29,0.00,,,0.00,VWS V14.00,2013-11-05 20:26:00,
2013-11-05 13:30:00,61.0,29.4,29.90,West,268,0.0,3.0,30,0.00,,,0.00,VWS V14.00,2013-11-05 20:30:00,
2013-11-05 13:31:00,62.3,28.8,29.88,NNW,333,0.0,3.0,28,0.00,,,0.00,VWS V14.00,2013-11-05 20:31:00,
2013-11-05 13:36:00,63.1,33.6,29.88,ESE,114,0.0,4.0,33,0.00,,,0.00,VWS V14.00,2013-11-05 20:36:00,
2013-11-05 13:40:00,62.1,30.3,29.90,WSW,250,1.0,5.0,30,0.00,,,0.00,VWS V14.00,2013-11-05 20:40:00,
2013-11-05 13:41:00,63.8,29.2,29.87,West,265,6.0,7.0,27,0.00,,,0.00,VWS V14.00,2013-11-05 20:41:00,
2013-11-05 13:46:00,63.6,30.8,29.87,SSW,210,0.0,5.0,29,0.00,,,0.00,VWS V14.00,2013-11-05 20:46:00,
2013-11-05 13:50:00,62.9,31.0,29.89,WNW,286,0.0,4.0,30,0.00,,,0.00,VWS V14.00,2013-11-05 20:50:00,
2013-11-05 13:51:00,63.9,28.4,29.87,NW,324,4.0,11.0,26,0.00,,,0.00,VWS V14.00,2013-11-05 20:51:00,
2013-11-05 13:56:00,63.7,28.2,29.87,NNE,32,3.0,5.0,26,0.00,,,0.00,VWS V14.00,2013-11-05 20:56:00,
2013-11-05 14:00:00,62.8,30.1,29.89,NNW,327,1.0,3.0,29,0.00,,,0.00,VWS V14.00,2013-11-05 21:00:00,
2013-11-05 14:01:00,64.1,28.5,29.86,WNW,301,0.0,5.0,26,0.00,,,0.00,VWS V14.00,2013-11-05 21:01:00,
2013-11-05 14:06:00,64.3,27.8,29.87,North,9,1.0,6.0,25,0.00,,,0.00,VWS V14.00,2013-11-05 21:06:00,
2013-11-05 14:10:00,62.0,29.4,29.88,SW,219,5.0,5.0,29,0.00,,,0.00,VWS V14.00,2013-11-05 21:10:00,
2013-11-05 14:11:00,64.5,27.9,29.87,NNE,17,6.0,6.0,25,0.00,,,0.00,VWS V14.00,2013-11-05 21:11:00,
2013-11-05 14:16:00,64.5,27.9,29.87,WNW,290,0.0,4.0,25,0.00,,,0.00,VWS V14.00,2013-11-05 21:16:00,
2013-11-05 14:20:00,63.6,30.8,29.88,SSW,194,1.0,6.0,29,0.00,,,0.00,VWS V14.00,2013-11-05 21:20:00,
2013-11-05 14:21:00,64.8,28.2,29.87,WSW,249,0.0,4.0,25,0.00,,,0.00,VWS V14.00,2013-11-05 21:21:00,
2013-11-05 14:26:00,64.4,27.8,29.87,WNW,283,1.0,1.0,25,0.00,,,0.00,VWS V14.00,2013-11-05 21:26:00,
2013-11-05 14:30:00,62.3,29.7,29.88,NNW,331,0.0,3.0,29,0.00,,,0.00,VWS V14.00,2013-11-05 21:30:00,
2013-11-05 14:31:00,65.2,27.5,29.87,North,355,2.0,6.0,24,0.00,,,0.00,VWS V14.00,2013-11-05 21:31:00,
2013-11-05 14:36:00,65.7,26.9,29.88,NW,315,6.0,9.0,23,0.00,,,0.00,VWS V14.00,2013-11-05 21:36:00,
2013-11-05 14:40:00,63.6,30.8,29.87,NW,310,1.0,3.0,29,0.00,,,0.00,VWS V14.00,2013-11-05 21:40:00,
2013-11-05 14:41:00,65.4,26.7,29.88,NNW,332,0.0,4.0,23,0.00,,,0.00,VWS V14.00,2013-11-05 21:41:00,
2013-11-05 14:46:00,65.3,27.6,29.88,WNW,290,1.0,2.0,24,0.00,,,0.00,VWS V14.00,2013-11-05 21:46:00,
2013-11-05 14:50:00,63.9,28.4,29.87,NNW,332,4.0,11.0,26,0.00,,,0.00,VWS V14.00,2013-11-05 21:50:00,
2013-11-05 14:51:00,65.5,27.8,29.88,NW,310,2.0,7.0,24,0.00,,,0.00,VWS V14.00,2013-11-05 21:51:00,
2013-11-05 14:56:00,65.6,26.8,29.88,ENE,62,5.0,6.0,23,0.00,,,0.00,VWS V14.00,2013-11-05 21:56:00,
2013-11-05 15:00:00,64.0,28.5,29.86,WNW,301,0.0,6.0,26,0.00,,,0.00,VWS V14.00,2013-11-05 22:00:00,
2013-11-05 15:01:00,65.2,27.5,29.88,East,93,3.0,5.0,24,0.00,,,0.00,VWS V14.00,2013-11-05 22:01:00,
2013-11-05 15:06:00,65.5,28.8,29.88,ESE,105,0.0,3.0,25,0.00,,,0.00,VWS V14.00,2013-11-05 22:06:00,
2013-11-05 15:10:00,64.4,27.8,29.87,NW,319,1.0,6.0,25,0.00,,,0.00,VWS V14.00,2013-11-05 22:10:00,
2013-11-05 15:11:00,65.6,26.8,29.88,ENE,71,5.0,6.0,23,0.00,,,0.00,VWS V14.00,2013-11-05 22:11:00,
2013-11-05 15:16:00,65.6,27.9,29.88,SSE,153,0.0,4.0,24,0.00,,,0.00,VWS V14.00,2013-11-05 22:16:00,
2013-11-05 15:20:00,64.8,27.2,29.87,WSW,249,0.0,4.0,24,0.00,,,0.00,VWS V14.00,2013-11-05 22:20:00,
2013-11-05 15:21:00,65.7,26.9,29.88,West,267,0.0,4.0,23,0.00,,,0.00,VWS V14.00,2013-11-05 22:21:00,
2013-11-05 15:26:00,65.3,27.6,29.88,South,176,0.0,9.0,24,0.00,,,0.00,VWS V14.00,2013-11-05 22:26:00,
2013-11-05 15:30:00,65.0,27.4,29.87,WNW,292,0.0,6.0,24,0.00,,,0.00,VWS V14.00,2013-11-05 22:30:00,
2013-11-05 15:31:00,65.0,27.4,29.88,East,91,0.0,3.0,24,0.00,,,0.00,VWS V14.00,2013-11-05 22:31:00,
2013-11-05 15:36:00,64.7,27.1,29.88,East,94,1.0,2.0,24,0.00,,,0.00,VWS V14.00,2013-11-05 22:36:00,
2013-11-05 15:40:00,65.5,26.8,29.88,NW,310,3.0,6.0,23,0.00,,,0.00,VWS V14.00,2013-11-05 22:40:00,
2013-11-05 15:41:00,64.6,27.0,29.88,East,96,0.0,1.0,24,0.00,,,0.00,VWS V14.00,2013-11-05 22:41:00,
2013-11-05 15:46:00,64.5,29.8,29.88,SSW,197,1.0,6.0,27,0.00,,,0.00,VWS V14.00,2013-11-05 22:46:00,
2013-11-05 15:50:00,65.5,26.8,29.88,NW,314,6.0,7.0,23,0.00,,,0.00,VWS V14.00,2013-11-05 22:50:00,
2013-11-05 15:51:00,64.4,26.9,29.88,SW,228,0.0,6.0,24,0.00,,,0.00,VWS V14.00,2013-11-05 22:51:00,
2013-11-05 15:56:00,64.5,25.9,29.89,West,273,0.0,4.0,23,0.00,,,0.00,VWS V14.00,2013-11-05 22:56:00,
2013-11-05 16:00:00,65.3,26.6,29.88,ENE,76,0.0,3.0,23,0.00,,,0.00,VWS V14.00,2013-11-05 23:00:00,
2013-11-05 16:01:00,64.9,26.2,29.89,NNE,24,2.0,4.0,23,0.00,,,0.00,VWS V14.00,2013-11-05 23:01:00,
2013-11-05 16:06:00,65.0,26.3,29.89,NNW,344,0.0,3.0,23,0.00,,,0.00,VWS V14.00,2013-11-05 23:06:00,
2013-11-05 16:10:00,65.6,27.9,29.88,ENE,63,5.0,6.0,24,0.00,,,0.00,VWS V14.00,2013-11-05 23:10:00,
2013-11-05 16:11:00,65.2,25.4,29.90,West,275,3.0,5.0,22,0.00,,,0.00,VWS V14.00,2013-11-05 23:11:00,
2013-11-05 16:16:00,65.3,25.5,29.90,West,277,0.0,1.0,22,0.00,,,0.00,VWS V14.00,2013-11-05 23:16:00,
2013-11-05 16:20:00,65.7,26.9,29.88,West,267,0.0,5.0,23,0.00,,,0.00,VWS V14.00,2013-11-05 23:20:00,
2013-11-05 16:21:00,65.6,24.6,29.90,NW,304,7.0,10.0,21,0.00,,,0.00,VWS V14.00,2013-11-05 23:21:00,
2013-11-05 16:26:00,65.6,24.6,29.90,NW,320,0.0,6.0,21,0.00,,,0.00,VWS V14.00,2013-11-05 23:26:00,
2013-11-05 16:30:00,65.0,27.4,29.88,East,91,0.0,3.0,24,0.00,,,0.00,VWS V14.00,2013-11-05 23:30:00,
2013-11-05 16:31:00,65.6,24.6,29.90,WNW,300,6.0,10.0,21,0.00,,,0.00,VWS V14.00,2013-11-05 23:31:00,
2013-11-05 16:36:00,65.5,23.4,29.91,NW,315,1.0,6.0,20,0.00,,,0.00,VWS V14.00,2013-11-05 23:36:00,
2013-11-05 16:40:00,64.6,27.0,29.88,East,96,0.0,1.0,24,0.00,,,0.00,VWS V14.00,2013-11-05 23:40:00,
2013-11-05 16:41:00,65.4,23.3,29.91,North,355,1.0,5.0,20,0.00,,,0.00,VWS V14.00,2013-11-05 23:41:00,
2013-11-05 16:46:00,65.3,23.2,29.91,North,355,4.0,4.0,20,0.00,,,0.00,VWS V14.00,2013-11-05 23:46:00,
2013-11-05 16:50:00,64.4,27.8,29.88,SW,227,2.0,6.0,25,0.00,,,0.00,VWS V14.00,2013-11-05 23:50:00,
2013-11-05 16:51:00,65.1,23.1,29.92,North,355,1.0,5.0,20,0.00,,,0.00,VWS V14.00,2013-11-05 23:51:00,
2013-11-05 16:56:00,64.9,22.9,29.92,North,350,0.0,2.0,20,0.00,,,0.00,VWS V14.00,2013-11-05 23:56:00,
2013-11-05 17:00:00,64.8,26.2,29.89,WNW,294,0.0,2.0,23,0.00,,,0.00,VWS V14.00,2013-11-06 00:00:00,
2013-11-05 17:01:00,64.7,22.7,29.92,North,11,0.0,3.0,20,0.00,,,0.00,VWS V14.00,2013-11-06 00:01:00,
2013-11-05 17:06:00,64.5,22.6,29.93,NNE,12,0.0,1.0,20,0.00,,,0.00,VWS V14.00,2013-11-06 00:06:00,
2013-11-05 17:10:00,65.2,26.5,29.89,NNW,327,2.0,7.0,23,0.00,,,0.00,VWS V14.00,2013-11-06 00:10:00,
2013-11-05 17:11:00,64.3,23.6,29.93,NW,307,2.0,3.0,21,0.00,,,0.00,VWS V14.00,2013-11-06 00:11:00,
2013-11-05 17:16:00,64.0,23.3,29.93,NW,313,0.0,2.0,21,0.00,,,0.00,VWS V14.00,2013-11-06 00:16:00,
2013-11-05 17:20:00,65.5,24.6,29.90,NW,317,8.0,10.0,21,0.00,,,0.00,VWS V14.00,2013-11-06 00:20:00,
2013-11-05 17:21:00,63.5,22.9,29.94,NW,316,2.0,5.0,21,0.00,,,0.00,VWS V14.00,2013-11-06 00:21:00,
2013-11-05 17:26:00,63.0,22.5,29.94,NW,315,2.0,4.0,21,0.00,,,0.00,VWS V14.00,2013-11-06 00:26:00,
2013-11-05 17:30:00,65.6,23.5,29.90,WSW,250,3.0,6.0,20,0.00,,,0.00,VWS V14.00,2013-11-06 00:30:00,
2013-11-05 17:31:00,62.6,22.1,29.94,NW,311,1.0,4.0,21,0.00,,,0.00,VWS V14.00,2013-11-06 00:31:00,
2013-11-05 17:36:00,62.1,21.7,29.94,NW,312,1.0,2.0,21,0.00,,,0.00,VWS V14.00,2013-11-06 00:36:00,
2013-11-05 17:40:00,65.4,23.3,29.91,North,5,2.0,5.0,20,0.00,,,0.00,VWS V14.00,2013-11-06 00:40:00,
2013-11-05 17:41:00,61.5,21.2,29.95,WNW,302,1.0,4.0,21,0.00,,,0.00,VWS V14.00,2013-11-06 00:41:00,
2013-11-05 17:46:00,61.0,20.8,29.95,NW,325,0.0,2.0,21,0.00,,,0.00,VWS V14.00,2013-11-06 00:46:00,
2013-11-05 17:50:00,65.1,23.1,29.92,North,5,1.0,5.0,20,0.00,,,0.00,VWS V14.00,2013-11-06 00:50:00,
2013-11-05 17:51:00,60.5,20.4,29.95,NW,325,2.0,3.0,21,0.00,,,0.00,VWS V14.00,2013-11-06 00:51:00,
2013-11-05 17:56:00,60.0,20.0,29.95,NW,306,1.0,7.0,21,0.00,,,0.00,VWS V14.00,2013-11-06 00:56:00,
2013-11-05 18:00:00,64.8,22.8,29.92,NNE,15,0.0,3.0,20,0.00,,,0.00,VWS V14.00,2013-11-06 01:00:00,
2013-11-05 18:01:00,59.6,17.3,29.96,WNW,292,1.0,4.0,19,0.00,,,0.00,VWS V14.00,2013-11-06 01:01:00,
2013-11-05 18:06:00,59.0,16.8,29.96,NNW,330,1.0,3.0,19,0.00,,,0.00,VWS V14.00,2013-11-06 01:06:00,
2013-11-05 18:10:00,64.3,22.4,29.93,NW,306,0.0,3.0,20,0.00,,,0.00,VWS V14.00,2013-11-06 01:10:00,
2013-11-05 18:11:00,58.7,16.6,29.97,NNW,346,1.0,3.0,19,0.00,,,0.00,VWS V14.00,2013-11-06 01:11:00,
2013-11-05 18:16:00,56.4,17.0,29.98,NE,40,7.0,9.0,21,0.00,,,0.00,VWS V14.00,2013-11-06 01:16:00,
2013-11-05 18:20:00,63.6,23.0,29.93,NW,317,2.0,5.0,21,0.00,,,0.00,VWS V14.00,2013-11-06 01:20:00,
2013-11-05 18:21:00,54.1,16.1,29.99,NE,48,4.0,6.0,22,0.00,,,0.00,VWS V14.00,2013-11-06 01:21:00,
2013-11-05 18:26:00,53.9,18.9,29.99,ENE,63,3.0,10.0,25,0.00,,,0.00,VWS V14.00,2013-11-06 01:26:00,
2013-11-05 18:30:00,62.6,22.1,29.94,NW,319,1.0,4.0,21,0.00,,,0.00,VWS V14.00,2013-11-06 01:30:00,
2013-11-05 18:31:00,54.1,19.1,30.00,East,82,1.0,6.0,25,0.00,,,0.00,VWS V14.00,2013-11-06 01:31:00,
2013-11-05 18:36:00,54.1,20.9,30.00,ENE,78,3.0,4.0,27,0.00,,,0.00,VWS V14.00,2013-11-06 01:36:00,
2013-11-05 18:40:00,61.6,21.3,29.95,NW,319,1.0,4.0,21,0.00,,,0.00,VWS V14.00,2013-11-06 01:40:00,
2013-11-05 18:41:00,53.9,20.7,30.01,ENE,74,3.0,6.0,27,0.00,,,0.00,VWS V14.00,2013-11-06 01:41:00,
2013-11-05 18:46:00,53.8,20.6,30.01,ENE,74,3.0,5.0,27,0.00,,,0.00,VWS V14.00,2013-11-06 01:46:00,
2013-11-05 18:50:00,60.6,20.5,29.94,NW,311,1.0,3.0,21,0.00,,,0.00,VWS V14.00,2013-11-06 01:50:00,
2013-11-05 18:51:00,53.5,19.5,30.02,ENE,74,2.0,3.0,26,0.00,,,0.00,VWS V14.00,2013-11-06 01:51:00,
2013-11-05 18:55:00,53.0,19.9,30.02,NE,56,2.0,5.0,27,0.00,,,0.00,VWS V14.00,2013-11-06 01:55:00,
2013-11-05 19:00:00,52.5,19.5,30.03,ENE,66,4.0,5.0,27,0.00,,,0.00,VWS V14.00,2013-11-06 02:00:00,
2013-11-05 19:05:00,52.4,18.5,30.03,ENE,71,2.0,6.0,26,0.00,,,0.00,VWS V14.00,2013-11-06 02:05:00,
2013-11-05 19:10:00,52.4,18.5,30.04,ENE,75,0.0,5.0,26,0.00,,,0.00,VWS V14.00,2013-11-06 02:10:00,
2013-11-05 19:15:00,52.4,19.4,30.05,ENE,76,0.0,2.0,27,0.00,,,0.00,VWS V14.00,2013-11-06 02:15:00,
2013-11-05 19:20:00,52.3,19.3,30.05,ENE,76,0.0,2.0,27,0.00,,,0.00,VWS V14.00,2013-11-06 02:20:00,
2013-11-05 19:25:00,52.0,19.1,30.06,West,274,3.0,6.0,27,0.00,,,0.00,VWS V14.00,2013-11-06 02:25:00,
2013-11-05 19:30:00,51.9,19.0,30.07,WSW,246,4.0,7.0,27,0.00,,,0.00,VWS V14.00,2013-11-06 02:30:00,
2013-11-05 19:36:00,51.9,19.8,30.07,WSW,246,4.0,5.0,28,0.00,,,0.00,VWS V14.00,2013-11-06 02:36:00,
2013-11-05 19:40:00,54.0,20.8,30.01,ENE,72,4.0,6.0,27,0.00,,,0.00,VWS V14.00,2013-11-06 02:40:00,
2013-11-05 19:41:00,51.8,19.8,30.07,West,260,3.0,5.0,28,0.00,,,0.00,VWS V14.00,2013-11-06 02:41:00,
2013-11-05 19:46:00,51.9,19.8,30.08,West,279,1.0,5.0,28,0.00,,,0.00,VWS V14.00,2013-11-06 02:46:00,
2013-11-05 19:50:00,53.6,19.6,30.02,ENE,74,2.0,3.0,26,0.00,,,0.00,VWS V14.00,2013-11-06 02:50:00,
2013-11-05 19:51:00,51.9,18.1,30.08,NNE,29,3.0,6.0,26,0.00,,,0.00,VWS V14.00,2013-11-06 02:51:00,
2013-11-05 19:56:00,52.2,18.4,30.08,WNW,297,0.0,4.0,26,0.00,,,0.00,VWS V14.00,2013-11-06 02:56:00,
2013-11-05 20:00:00,52.6,19.6,30.03,ENE,60,2.0,4.0,27,0.00,,,0.00,VWS V14.00,2013-11-06 03:00:00,
2013-11-05 20:01:00,52.3,18.5,30.08,WNW,297,0.0,2.0,26,0.00,,,0.00,VWS V14.00,2013-11-06 03:01:00,
2013-11-05 20:06:00,52.3,19.3,30.09,WNW,297,0.0,2.0,27,0.00,,,0.00,VWS V14.00,2013-11-06 03:06:00,
2013-11-05 20:10:00,52.4,18.5,30.04,ENE,75,3.0,5.0,26,0.00,,,0.00,VWS V14.00,2013-11-06 03:10:00,
2013-11-05 20:11:00,52.1,18.3,30.09,WNW,296,0.0,2.0,26,0.00,,,0.00,VWS V14.00,2013-11-06 03:11:00,
2013-11-05 20:16:00,51.9,18.1,30.09,WNW,297,0.0,1.0,26,0.00,,,0.00,VWS V14.00,2013-11-06 03:16:00,
2013-11-05 20:20:00,52.3,19.3,30.05,ENE,76,2.0,2.0,27,0.00,,,0.00,VWS V14.00,2013-11-06 03:20:00,
2013-11-05 20:21:00,51.6,17.0,30.10,WNW,297,0.0,2.0,25,0.00,,,0.00,VWS V14.00,2013-11-06 03:21:00,
2013-11-05 20:26:00,51.2,16.6,30.10,WNW,295,1.0,3.0,25,0.00,,,0.00,VWS V14.00,2013-11-06 03:26:00,
2013-11-05 20:30:00,51.9,19.0,30.07,WSW,253,4.0,7.0,27,0.00,,,0.00,VWS V14.00,2013-11-06 03:30:00,
2013-11-05 20:31:00,51.0,16.4,30.10,WNW,295,2.0,2.0,25,0.00,,,0.00,VWS V14.00,2013-11-06 03:31:00,
2013-11-05 20:36:00,50.9,14.4,30.11,WNW,298,0.0,2.0,23,0.00,,,0.00,VWS V14.00,2013-11-06 03:36:00,
2013-11-05 20:40:00,51.8,20.6,30.07,WSW,247,2.0,3.0,29,0.00,,,0.00,VWS V14.00,2013-11-06 03:40:00,
2013-11-05 20:41:00,50.8,15.3,30.11,WNW,298,1.0,2.0,24,0.00,,,0.00,VWS V14.00,2013-11-06 03:41:00,
2013-11-05 20:46:00,50.5,15.1,30.12,WNW,298,3.0,3.0,24,0.00,,,0.00,VWS V14.00,2013-11-06 03:46:00,
2013-11-05 20:50:00,51.9,19.0,30.08,NNE,17,1.0,6.0,27,0.00,,,0.00,VWS V14.00,2013-11-06 03:50:00,
2013-11-05 20:51:00,50.2,14.8,30.12,WNW,298,0.0,1.0,24,0.00,,,0.00,VWS V14.00,2013-11-06 03:51:00,
2013-11-05 20:56:00,49.7,14.4,30.12,WNW,303,0.0,2.0,24,0.00,,,0.00,VWS V14.00,2013-11-06 03:56:00,
2013-11-05 21:00:00,52.3,18.5,30.08,WNW,296,0.0,2.0,26,0.00,,,0.00,VWS V14.00,2013-11-06 04:00:00,
2013-11-05 21:01:00,48.7,14.5,30.12,NNE,13,2.0,4.0,25,0.00,,,0.00,VWS V14.00,2013-11-06 04:01:00,
2013-11-05 21:06:00,47.8,14.6,30.13,North,5,0.0,1.0,26,0.00,,,0.00,VWS V14.00,2013-11-06 04:06:00,
2013-11-05 21:10:00,52.1,18.3,30.09,WNW,297,1.0,2.0,26,0.00,,,0.00,VWS V14.00,2013-11-06 04:10:00,
2013-11-05 21:11:00,47.3,15.0,30.14,North,5,0.0,1.0,27,0.00,,,0.00,VWS V14.00,2013-11-06 04:11:00,
2013-11-05 21:16:00,46.8,14.6,30.14,North,360,0.0,1.0,27,0.00,,,0.00,VWS V14.00,2013-11-06 04:16:00,
2013-11-05 21:20:00,51.6,17.0,30.10,WNW,297,1.0,3.0,25,0.00,,,0.00,VWS V14.00,2013-11-06 04:20:00,
2013-11-05 21:21:00,45.9,13.0,30.14,North,5,0.0,2.0,26,0.00,,,0.00,VWS V14.00,2013-11-06 04:21:00,
2013-11-05 21:26:00,45.4,12.5,30.15,North,5,0.0,2.0,26,0.00,,,0.00,VWS V14.00,2013-11-06 04:26:00,
2013-11-05 21:30:00,51.1,16.5,30.10,WNW,296,0.0,1.0,25,0.00,,,0.00,VWS V14.00,2013-11-06 04:30:00,
2013-11-05 21:31:00,45.2,12.4,30.15,North,360,0.0,2.0,26,0.00,,,0.00,VWS V14.00,2013-11-06 04:31:00,
2013-11-05 21:36:00,45.0,13.1,30.16,North,360,0.0,0.0,27,0.00,,,0.00,VWS V14.00,2013-11-06 04:36:00,
2013-11-05 21:40:00,50.8,15.3,30.11,WNW,298,0.0,2.0,24,0.00,,,0.00,VWS V14.00,2013-11-06 04:40:00,
2013-11-05 21:41:00,44.8,12.9,30.16,North,5,0.0,1.0,27,0.00,,,0.00,VWS V14.00,2013-11-06 04:41:00,
2013-11-05 21:46:00,44.2,13.2,30.17,North,5,0.0,0.0,28,0.00,,,0.00,VWS V14.00,2013-11-06 04:46:00,
2013-11-05 21:50:00,50.2,14.8,30.12,WNW,298,1.0,1.0,24,0.00,,,0.00,VWS V14.00,2013-11-06 04:50:00,
2013-11-05 21:51:00,43.9,12.9,30.17,North,5,0.0,0.0,28,0.00,,,0.00,VWS V14.00,2013-11-06 04:51:00,
2013-11-05 21:56:00,43.4,14.1,30.17,North,360,0.0,0.0,30,0.00,,,0.00,VWS V14.00,2013-11-06 04:56:00,
2013-11-05 22:00:00,48.8,14.6,30.13,NNE,15,1.0,4.0,25,0.00,,,0.00,VWS V14.00,2013-11-06 05:00:00,
2013-11-05 22:01:00,42.9,12.9,30.18,North,360,0.0,2.0,29,0.00,,,0.00,VWS V14.00,2013-11-06 05:01:00,
2013-11-05 22:06:00,42.5,12.5,30.18,North,360,0.0,1.0,29,0.00,,,0.00,VWS V14.00,2013-11-06 05:06:00,
2013-11-05 22:10:00,47.4,15.1,30.14,North,5,0.0,1.0,27,0.00,,,0.00,VWS V14.00,2013-11-06 05:10:00,
2013-11-05 22:11:00,42.0,12.1,30.18,North,360,0.0,1.0,29,0.00,,,0.00,VWS V14.00,2013-11-06 05:11:00,
2013-11-05 22:16:00,41.4,11.5,30.19,North,360,0.0,1.0,29,0.00,,,0.00,VWS V14.00,2013-11-06 05:16:00,
2013-11-05 22:20:00,46.1,13.1,30.14,North,5,2.0,2.0,26,0.00,,,0.00,VWS V14.00,2013-11-06 05:20:00,
2013-11-05 22:21:00,40.6,11.6,30.19,North,360,0.0,1.0,30,0.00,,,0.00,VWS V14.00,2013-11-06 05:21:00,
2013-11-05 22:26:00,40.1,11.9,30.19,North,360,0.0,2.0,31,0.00,,,0.00,VWS V14.00,2013-11-06 05:26:00,
2013-11-05 22:30:00,45.2,12.4,30.15,North,5,0.0,2.0,26,0.00,,,0.00,VWS V14.00,2013-11-06 05:30:00,
2013-11-05 22:31:00,39.3,11.2,30.20,North,5,0.0,2.0,31,0.00,,,0.00,VWS V14.00,2013-11-06 05:31:00,
2013-11-05 22:36:00,38.9,10.9,30.20,North,5,1.0,1.0,31,0.00,,,0.00,VWS V14.00,2013-11-06 05:36:00,
2013-11-05 22:40:00,44.8,12.9,30.16,North,360,0.0,1.0,27,0.00,,,0.00,VWS V14.00,2013-11-06 05:40:00,
2013-11-05 22:41:00,38.7,10.7,30.20,North,5,0.0,1.0,31,0.00,,,0.00,VWS V14.00,2013-11-06 05:41:00,
2013-11-05 22:46:00,38.6,11.3,30.20,North,360,0.0,2.0,32,0.00,,,0.00,VWS V14.00,2013-11-06 05:46:00,
2013-11-05 22:50:00,44.0,13.0,30.17,North,5,0.0,0.0,28,0.00,,,0.00,VWS V14.00,2013-11-06 05:50:00,
2013-11-05 22:51:00,38.4,11.1,30.21,North,360,1.0,3.0,32,0.00,,,0.00,VWS V14.00,2013-11-06 05:51:00,
2013-11-05 22:56:00,38.2,11.6,30.21,North,360,0.0,2.0,33,0.00,,,0.00,VWS V14.00,2013-11-06 05:56:00,
2013-11-05 23:00:00,43.0,12.9,30.18,North,360,0.0,2.0,29,0.00,,,0.00,VWS V14.00,2013-11-06 06:00:00,
2013-11-05 23:01:00,38.0,12.1,30.22,North,360,1.0,1.0,34,0.00,,,0.00,VWS V14.00,2013-11-06 06:01:00,
2013-11-05 23:06:00,37.5,11.0,30.23,North,360,0.0,2.0,33,0.00,,,0.00,VWS V14.00,2013-11-06 06:06:00,
2013-11-05 23:10:00,42.1,12.1,30.18,North,360,0.0,2.0,29,0.00,,,0.00,VWS V14.00,2013-11-06 06:10:00,
2013-11-05 23:11:00,37.1,10.7,30.23,North,360,0.0,1.0,33,0.00,,,0.00,VWS V14.00,2013-11-06 06:11:00,
2013-11-05 23:16:00,37.5,10.3,30.23,North,351,0.0,3.0,32,0.00,,,0.00,VWS V14.00,2013-11-06 06:16:00,
2013-11-05 23:20:00,40.9,11.9,30.19,North,360,0.0,1.0,30,0.00,,,0.00,VWS V14.00,2013-11-06 06:20:00,
2013-11-05 23:21:00,37.7,10.5,30.23,North,351,0.0,1.0,32,0.00,,,0.00,VWS V14.00,2013-11-06 06:21:00,
2013-11-05 23:26:00,37.2,9.4,30.24,North,360,1.0,2.0,31,0.00,,,0.00,VWS V14.00,2013-11-06 06:26:00,
2013-11-05 23:30:00,39.5,11.4,30.19,North,5,0.0,2.0,31,0.00,,,0.00,VWS V14.00,2013-11-06 06:30:00,
2013-11-05 23:31:00,36.8,9.0,30.24,North,360,1.0,2.0,31,0.00,,,0.00,VWS V14.00,2013-11-06 06:31:00,
2013-11-05 23:36:00,36.6,9.6,30.24,North,360,0.0,1.0,32,0.00,,,0.00,VWS V14.00,2013-11-06 06:36:00,
2013-11-05 23:40:00,38.7,10.7,30.20,North,5,0.0,1.0,31,0.00,,,0.00,VWS V14.00,2013-11-06 06:40:00,
2013-11-05 23:41:00,36.5,9.5,30.25,North,360,1.0,3.0,32,0.00,,,0.00,VWS V14.00,2013-11-06 06:41:00,
2013-11-05 23:46:00,36.5,9.5,30.25,North,5,0.0,3.0,32,0.00,,,0.00,VWS V14.00,2013-11-06 06:46:00,
2013-11-05 23:50:00,38.4,11.1,30.21,North,360,0.0,1.0,32,0.00,,,0.00,VWS V14.00,2013-11-06 06:50:00,
2013-11-05 23:51:00,36.5,9.5,30.25,North,360,0.0,1.0,32,0.00,,,0.00,VWS V14.00,2013-11-06 06:51:00,
2013-11-05 23:56:00,36.5,9.5,30.25,North,5,0.0,1.0,32,0.00,,,0.00,VWS V14.00,2013-11-06 06:56:00,